Time;durP1;ratioP1;P1;durP2;ratioP2;P2;SDS_P1;SDS_P2;PMS_P1;PMS_P2;Temp;Humidity;BMP_temperature;BMP_pressure;BME280_temperature;BME280_humidity;BME280_pressure;Samples;Min_cycle;Max_cycle;Signal;HPM_P1;HPM_P2
2022/09/09 00:02:38;;;;;;;;;;;11.00;99.90;;;;;;5103558;27;20367;-57
2022/09/09 00:05:22;;;;;;;;;;;11.00;99.90;;;;;;5125007;27;19916;-57
2022/09/09 00:08:03;;;;;;;;;;;10.90;99.90;;;;;;5124954;27;19911;-57
2022/09/09 00:10:43;;;;;;;;;;;11.00;99.90;;;;;;5113126;27;20302;-57
2022/09/09 00:13:25;;;;;;;;;;;11.00;99.90;;;;;;5104325;27;19912;-57
2022/09/09 00:16:08;;;;;;;;;;;11.00;99.90;;;;;;5104284;27;19917;-57
2022/09/09 00:18:53;;;;;;;;;;;10.90;99.90;;;;;;5099866;27;19958;-57
2022/09/09 00:21:34;;;;;;;;;;;10.70;99.90;;;;;;5101086;27;19912;-57
2022/09/09 00:24:18;;;;;;;;;;;10.60;99.90;;;;;;5103338;27;19958;-57
2022/09/09 00:27:01;;;;;;;;;;;10.50;99.90;;;;;;5102814;27;19954;-57
2022/09/09 00:29:43;;;;;;;;;;;10.40;99.90;;;;;;5142647;27;19964;-58
2022/09/09 00:32:23;;;;;;;;;;;10.40;99.90;;;;;;5120039;27;19916;-57
2022/09/09 00:35:11;;;;;;;;;;;10.50;99.90;;;;;;5115173;27;19916;-57
2022/09/09 00:37:54;;;;;;;;;;;10.50;99.90;;;;;;5123882;27;19916;-57
2022/09/09 00:40:35;;;;;;;;;;;10.40;99.90;;;;;;5101125;27;19950;-57
2022/09/09 00:43:22;;;;;;;;;;;10.40;99.90;;;;;;5123701;27;20541;-57
2022/09/09 00:46:33;;;;;;;;;;;10.50;99.90;;;;;;5088753;27;19912;-57
2022/09/09 00:49:19;;;;;;;;;;;10.50;99.90;;;;;;5103169;27;19945;-57
2022/09/09 00:52:04;;;;;;;;;;;10.50;99.90;;;;;;5104800;27;20107;-57
2022/09/09 00:54:48;;;;;;;;;;;10.40;99.90;;;;;;5104934;27;19953;-58
2022/09/09 00:57:29;;;;;;;;;;;10.40;99.90;;;;;;5107552;27;20312;-56
2022/09/09 01:00:21;;;;;;;;;;;10.50;99.90;;;;;;5097782;27;19927;-57
2022/09/09 01:03:08;;;;;;;;;;;10.50;99.90;;;;;;5104772;27;19926;-58
2022/09/09 01:05:52;;;;;;;;;;;10.50;99.90;;;;;;5104866;27;19926;-57
2022/09/09 01:08:42;;;;;;;;;;;10.50;99.90;;;;;;5104699;27;19965;-57
2022/09/09 01:11:25;;;;;;;;;;;10.60;99.90;;;;;;5166995;27;19915;-56
2022/09/09 01:14:14;;;;;;;;;;;10.70;99.90;;;;;;5104829;27;20435;-57
2022/09/09 01:16:57;;;;;;;;;;;10.60;99.90;;;;;;5098615;27;19930;-58
2022/09/09 01:19:44;;;;;;;;;;;10.50;99.90;;;;;;5107926;27;19912;-57
2022/09/09 01:22:29;;;;;;;;;;;10.40;99.90;;;;;;5104476;27;19912;-57
2022/09/09 01:25:27;;;;;;;;;;;10.40;99.90;;;;;;5103667;27;19946;-58
2022/09/09 01:28:23;;;;;;;;;;;10.30;99.90;;;;;;5104649;27;20434;-57
2022/09/09 01:31:07;;;;;;;;;;;10.30;99.90;;;;;;5090931;27;19930;-57
2022/09/09 01:33:53;;;;;;;;;;;10.30;99.90;;;;;;5087141;27;19930;-57
2022/09/09 01:36:39;;;;;;;;;;;10.20;99.90;;;;;;5104249;27;20427;-57
2022/09/09 01:39:20;;;;;;;;;;;10.20;99.90;;;;;;5100116;27;19930;-57
2022/09/09 01:42:09;;;;;;;;;;;10.10;99.90;;;;;;5100633;27;19930;-57
2022/09/09 01:44:49;;;;;;;;;;;10.00;99.90;;;;;;5082474;27;19965;-57
2022/09/09 01:47:29;;;;;;;;;;;10.00;99.90;;;;;;5103607;27;20361;-58
2022/09/09 01:50:22;;;;;;;;;;;10.00;99.90;;;;;;5097189;27;19930;-58
2022/09/09 01:53:03;;;;;;;;;;;10.00;99.90;;;;;;5083214;28;19921;-57
2022/09/09 01:55:49;;;;;;;;;;;10.00;99.90;;;;;;5096574;27;20338;-57
2022/09/09 01:58:36;;;;;;;;;;;10.00;99.90;;;;;;5099016;27;19922;-57
2022/09/09 02:01:21;;;;;;;;;;;10.00;99.90;;;;;;5124843;27;19912;-57
2022/09/09 02:04:05;;;;;;;;;;;10.00;99.90;;;;;;5084554;28;19916;-57
2022/09/09 02:06:46;;;;;;;;;;;10.00;99.90;;;;;;5104501;27;19920;-57
2022/09/09 02:09:37;;;;;;;;;;;9.90;99.90;;;;;;5077061;28;22149;-57
2022/09/09 02:12:19;;;;;;;;;;;9.90;99.90;;;;;;5097590;27;19931;-57
2022/09/09 02:15:11;;;;;;;;;;;9.90;99.90;;;;;;5097610;27;19977;-57
2022/09/09 02:17:59;;;;;;;;;;;10.00;99.90;;;;;;5116874;27;19927;-57
2022/09/09 02:20:40;;;;;;;;;;;10.00;99.90;;;;;;5114726;22;19926;-54
2022/09/09 02:23:21;;;;;;;;;;;10.00;99.90;;;;;;5102445;27;20233;-53
2022/09/09 02:26:05;;;;;;;;;;;10.10;99.90;;;;;;5104775;27;19954;-53
2022/09/09 02:28:44;;;;;;;;;;;10.20;99.90;;;;;;5104328;27;20307;-54
2022/09/09 02:31:25;;;;;;;;;;;10.30;99.90;;;;;;5091505;27;19913;-54
2022/09/09 02:34:10;;;;;;;;;;;10.30;99.90;;;;;;5104677;27;19969;-54
2022/09/09 02:36:51;;;;;;;;;;;10.30;99.90;;;;;;5104871;27;20407;-52
2022/09/09 02:39:32;;;;;;;;;;;10.40;99.90;;;;;;5104004;27;19926;-54
2022/09/09 02:42:13;;;;;;;;;;;10.40;99.90;;;;;;5104853;27;19916;-55
2022/09/09 02:44:53;;;;;;;;;;;10.50;99.90;;;;;;5104692;27;19912;-53
2022/09/09 02:47:36;;;;;;;;;;;10.60;99.90;;;;;;5104774;27;19926;-54
2022/09/09 02:50:22;;;;;;;;;;;10.60;99.90;;;;;;5099618;27;19961;-53
2022/09/09 02:53:09;;;;;;;;;;;10.50;99.90;;;;;;5113259;27;19926;-53
2022/09/09 02:55:55;;;;;;;;;;;10.50;99.90;;;;;;5105053;27;19912;-52
2022/09/09 02:58:37;;;;;;;;;;;10.60;99.90;;;;;;5104521;27;20319;-53
2022/09/09 03:01:19;;;;;;;;;;;10.60;99.90;;;;;;5092591;27;19982;-54
2022/09/09 03:03:59;;;;;;;;;;;10.60;99.90;;;;;;5104954;27;20486;-55
2022/09/09 03:06:39;;;;;;;;;;;10.60;99.90;;;;;;5125583;27;20104;-53
2022/09/09 03:09:28;;;;;;;;;;;10.60;99.90;;;;;;5104002;27;19945;-58
2022/09/09 03:12:10;;;;;;;;;;;10.70;99.90;;;;;;5105154;27;19930;-52
2022/09/09 03:14:51;;;;;;;;;;;10.70;99.90;;;;;;5110638;27;19945;-54
2022/09/09 03:17:31;;;;;;;;;;;10.70;99.90;;;;;;5104207;27;20315;-53
2022/09/09 03:20:12;;;;;;;;;;;10.70;99.90;;;;;;5100945;27;19926;-53
2022/09/09 03:22:52;;;;;;;;;;;10.80;99.90;;;;;;5111288;27;19945;-53
2022/09/09 03:25:33;;;;;;;;;;;10.80;99.90;;;;;;5082237;28;19916;-55
2022/09/09 03:28:15;;;;;;;;;;;10.80;99.90;;;;;;5098801;27;19974;-53
2022/09/09 03:31:00;;;;;;;;;;;10.80;99.90;;;;;;5094005;27;19927;-53
2022/09/09 03:33:40;;;;;;;;;;;10.70;99.90;;;;;;5103986;27;19926;-53
2022/09/09 03:36:21;;;;;;;;;;;10.80;99.90;;;;;;5104716;27;19966;-54
2022/09/09 03:39:02;;;;;;;;;;;10.80;99.90;;;;;;5103882;27;20700;-53
2022/09/09 03:41:47;;;;;;;;;;;10.90;99.90;;;;;;5088180;27;20344;-54
2022/09/09 03:44:28;;;;;;;;;;;11.10;99.90;;;;;;5101951;27;20191;-51
2022/09/09 03:47:08;;;;;;;;;;;11.30;99.90;;;;;;5094234;27;19930;-53
2022/09/09 03:49:49;;;;;;;;;;;11.60;99.90;;;;;;5116180;27;19930;-53
2022/09/09 03:52:30;;;;;;;;;;;11.80;99.90;;;;;;5086170;27;19939;-52
2022/09/09 03:55:11;;;;;;;;;;;12.10;99.90;;;;;;5097354;27;19973;-52
2022/09/09 03:57:51;;;;;;;;;;;12.10;99.90;;;;;;5093642;27;20434;-53
2022/09/09 04:00:32;;;;;;;;;;;12.30;99.90;;;;;;5123206;27;19922;-52
2022/09/09 04:03:12;;;;;;;;;;;12.50;99.90;;;;;;5137785;27;19949;-53
2022/09/09 04:05:52;;;;;;;;;;;12.60;99.90;;;;;;5098703;27;20331;-53
2022/09/09 04:08:32;;;;;;;;;;;12.70;99.90;;;;;;5100145;27;20434;-53
2022/09/09 04:11:13;;;;;;;;;;;12.70;99.90;;;;;;5092777;27;19962;-52
2022/09/09 04:13:54;;;;;;;;;;;12.70;99.90;;;;;;5100468;27;19916;-53
2022/09/09 04:16:36;;;;;;;;;;;12.80;99.90;;;;;;5098139;27;19934;-52
2022/09/09 04:19:16;;;;;;;;;;;12.90;99.90;;;;;;5096863;27;20327;-53
2022/09/09 04:21:57;;;;;;;;;;;13.00;99.90;;;;;;5097421;27;19924;-53
2022/09/09 04:24:37;;;;;;;;;;;13.10;99.90;;;;;;5071359;28;19917;-55
2022/09/09 04:27:17;;;;;;;;;;;13.00;99.90;;;;;;5099750;27;19973;-52
2022/09/09 04:29:57;;;;;;;;;;;13.00;99.90;;;;;;5094502;27;20422;-53
2022/09/09 04:32:38;;;;;;;;;;;12.90;99.90;;;;;;5119474;27;19916;-52
2022/09/09 04:35:19;;;;;;;;;;;12.90;99.90;;;;;;5090590;27;19981;-52
2022/09/09 04:38:02;;;;;;;;;;;12.80;99.90;;;;;;5102754;27;19954;-53
2022/09/09 04:40:45;;;;;;;;;;;12.90;99.90;;;;;;5096435;27;19916;-54
2022/09/09 04:43:28;;;;;;;;;;;12.90;99.90;;;;;;5097260;27;19934;-52
2022/09/09 04:46:08;;;;;;;;;;;12.80;99.90;;;;;;5122905;27;19911;-52
2022/09/09 04:48:49;;;;;;;;;;;12.90;99.90;;;;;;5061637;28;20234;-51
2022/09/09 04:51:31;;;;;;;;;;;12.90;99.90;;;;;;5070617;27;20432;-53
2022/09/09 04:54:11;;;;;;;;;;;12.90;99.90;;;;;;5100040;27;19930;-54
2022/09/09 04:56:54;;;;;;;;;;;13.00;99.90;;;;;;5115586;27;19930;-53
2022/09/09 04:59:34;;;;;;;;;;;13.00;99.90;;;;;;5079799;27;19916;-53
2022/09/09 05:02:15;;;;;;;;;;;13.00;99.90;;;;;;5091662;27;19916;-54
2022/09/09 05:04:55;;;;;;;;;;;13.00;99.90;;;;;;5094356;27;19934;-53
2022/09/09 05:07:37;;;;;;;;;;;13.00;99.90;;;;;;5095287;27;20332;-53
2022/09/09 05:10:17;;;;;;;;;;;13.00;99.90;;;;;;5118669;27;20296;-52
2022/09/09 05:12:59;;;;;;;;;;;13.00;99.90;;;;;;5100780;27;19930;-52
2022/09/09 05:15:43;;;;;;;;;;;13.10;99.90;;;;;;5089722;27;20411;-52
2022/09/09 05:18:22;;;;;;;;;;;13.20;99.90;;;;;;5089198;27;19913;-53
2022/09/09 05:21:02;;;;;;;;;;;13.30;99.90;;;;;;5093132;27;19920;-53
2022/09/09 05:23:43;;;;;;;;;;;13.40;99.90;;;;;;5095935;27;20344;-53
2022/09/09 05:26:24;;;;;;;;;;;13.40;99.90;;;;;;5102390;27;19938;-53
2022/09/09 05:29:08;;;;;;;;;;;13.50;99.90;;;;;;5101113;27;19930;-52
2022/09/09 05:31:48;;;;;;;;;;;13.40;99.90;;;;;;5093686;27;19953;-52
2022/09/09 05:34:31;;;;;;;;;;;13.50;99.90;;;;;;5099949;27;19920;-53
2022/09/09 05:37:11;;;;;;;;;;;13.60;99.90;;;;;;5094163;27;19954;-53
2022/09/09 05:39:50;;;;;;;;;;;13.80;99.90;;;;;;5098948;27;20331;-53
2022/09/09 05:42:32;;;;;;;;;;;13.90;99.90;;;;;;5085984;27;19931;-52
2022/09/09 05:45:13;;;;;;;;;;;13.80;99.90;;;;;;5078958;28;20029;-53
2022/09/09 05:47:54;;;;;;;;;;;13.80;99.90;;;;;;5141794;27;19930;-52
2022/09/09 05:50:35;;;;;;;;;;;13.70;99.90;;;;;;5092355;27;19966;-54
2022/09/09 05:53:14;;;;;;;;;;;13.70;99.90;;;;;;5097886;27;20621;-53
2022/09/09 05:56:01;;;;;;;;;;;13.70;99.90;;;;;;5075374;28;19916;-52
2022/09/09 05:58:43;;;;;;;;;;;13.80;99.90;;;;;;5098589;27;19934;-53
2022/09/09 06:01:25;;;;;;;;;;;14.00;99.90;;;;;;5093941;27;20274;-53
2022/09/09 06:04:05;;;;;;;;;;;14.10;99.90;;;;;;5061814;28;19921;-53
2022/09/09 06:06:46;;;;;;;;;;;14.20;99.90;;;;;;5079388;28;20409;-52
2022/09/09 06:09:31;;;;;;;;;;;14.40;99.90;;;;;;5114409;27;19916;-53
2022/09/09 06:12:11;;;;;;;;;;;14.60;99.90;;;;;;5095205;27;20237;-52
2022/09/09 06:14:52;;;;;;;;;;;14.60;99.90;;;;;;5098618;27;19920;-53
2022/09/09 06:17:36;;;;;;;;;;;14.70;99.90;;;;;;5087778;27;20434;-52
2022/09/09 06:20:15;;;;;;;;;;;14.80;99.90;;;;;;5096224;27;19930;-54
2022/09/09 06:22:56;;;;;;;;;;;14.90;99.90;;;;;;5103958;27;19912;-53
2022/09/09 06:25:36;;;;;;;;;;;15.10;99.90;;;;;;5116242;27;20364;-52
2022/09/09 06:28:17;;;;;;;;;;;15.30;99.90;;;;;;5118311;27;19916;-53
2022/09/09 06:30:59;;;;;;;;;;;15.60;99.90;;;;;;5089045;27;19946;-52
2022/09/09 06:33:40;;;;;;;;;;;16.10;99.90;;;;;;5125148;27;19912;-53
2022/09/09 06:36:21;;;;;;;;;;;16.50;99.90;;;;;;5105293;27;19961;-52
2022/09/09 06:39:02;;;;;;;;;;;16.70;99.90;;;;;;5104245;27;19930;-52
2022/09/09 06:41:43;;;;;;;;;;;16.70;99.90;;;;;;5088845;27;19957;-53
2022/09/09 06:44:39;;;;;;;;;;;16.70;99.90;;;;;;5125479;27;19912;-51
2022/09/09 06:47:22;;;;;;;;;;;16.90;99.90;;;;;;5104699;27;19916;-52
2022/09/09 06:50:02;;;;;;;;;;;17.10;99.90;;;;;;5082005;28;19917;-52
2022/09/09 06:52:47;;;;;;;;;;;17.20;99.90;;;;;;5084642;28;20374;-53
2022/09/09 06:55:28;;;;;;;;;;;17.60;99.90;;;;;;5104858;27;20319;-52
2022/09/09 06:58:10;;;;;;;;;;;17.90;99.90;;;;;;5125377;27;19916;-52
2022/09/09 07:00:51;;;;;;;;;;;18.20;99.90;;;;;;5095858;27;20423;-53
2022/09/09 07:03:31;;;;;;;;;;;18.20;99.90;;;;;;5125598;27;19912;-52
2022/09/09 07:06:14;;;;;;;;;;;18.00;99.90;;;;;;5126111;27;19915;-53
2022/09/09 07:08:56;;;;;;;;;;;17.70;99.90;;;;;;5097958;27;19957;-52
2022/09/09 07:11:41;;;;;;;;;;;17.40;99.90;;;;;;5084080;28;19913;-51
2022/09/09 07:14:21;;;;;;;;;;;17.30;99.90;;;;;;5088699;27;19957;-53
2022/09/09 07:17:06;;;;;;;;;;;17.30;99.90;;;;;;5103939;27;20315;-53
2022/09/09 07:19:50;;;;;;;;;;;17.30;99.90;;;;;;5122597;27;19916;-53
2022/09/09 07:22:30;;;;;;;;;;;17.30;99.90;;;;;;5110581;27;19934;-53
2022/09/09 07:25:11;;;;;;;;;;;17.40;99.90;;;;;;5079497;28;19920;-52
2022/09/09 07:27:52;;;;;;;;;;;17.40;99.90;;;;;;5124261;27;20278;-52
2022/09/09 07:30:31;;;;;;;;;;;17.40;99.90;;;;;;5076239;28;20147;-52
2022/09/09 07:33:11;;;;;;;;;;;17.60;99.90;;;;;;5098568;27;19926;-53
2022/09/09 07:35:51;;;;;;;;;;;17.60;99.90;;;;;;5142253;27;19942;-52
2022/09/09 07:38:31;;;;;;;;;;;17.70;99.90;;;;;;5114069;27;19916;-52
2022/09/09 07:41:12;;;;;;;;;;;17.70;99.90;;;;;;5098256;27;20430;-53
2022/09/09 07:43:53;;;;;;;;;;;17.60;99.90;;;;;;5099371;27;19961;-52
2022/09/09 07:46:34;;;;;;;;;;;17.60;99.90;;;;;;5062168;28;19927;-53
2022/09/09 07:49:15;;;;;;;;;;;17.70;99.90;;;;;;5103785;27;19946;-53
2022/09/09 07:51:55;;;;;;;;;;;17.50;99.90;;;;;;5100457;27;20333;-52
2022/09/09 07:54:35;;;;;;;;;;;17.40;99.90;;;;;;5084210;28;19926;-53
2022/09/09 07:57:18;;;;;;;;;;;17.50;99.90;;;;;;5121507;27;20410;-53
2022/09/09 07:59:58;;;;;;;;;;;17.70;99.90;;;;;;5101620;27;19934;-53
2022/09/09 08:02:39;;;;;;;;;;;17.90;99.90;;;;;;5103078;27;19963;-52
2022/09/09 08:05:19;;;;;;;;;;;18.10;99.90;;;;;;5104034;27;20355;-52
2022/09/09 08:08:00;;;;;;;;;;;18.30;99.90;;;;;;5124508;27;19912;-52
2022/09/09 08:10:40;;;;;;;;;;;18.60;99.90;;;;;;5095722;27;19950;-52
2022/09/09 08:13:20;;;;;;;;;;;18.80;99.90;;;;;;5103831;27;20354;-53
2022/09/09 08:16:08;;;;;;;;;;;19.00;99.90;;;;;;5103717;27;19916;-52
2022/09/09 08:18:50;;;;;;;;;;;19.00;99.90;;;;;;5103558;27;19946;-52
2022/09/09 08:21:32;;;;;;;;;;;18.70;99.90;;;;;;5140266;22;20343;-57
2022/09/09 08:24:14;;;;;;;;;;;18.40;99.90;;;;;;5093171;27;20389;-57
2022/09/09 08:26:56;;;;;;;;;;;17.90;99.90;;;;;;5098858;27;19950;-57
2022/09/09 08:29:38;;;;;;;;;;;17.70;99.90;;;;;;5069804;28;19924;-56
2022/09/09 08:32:18;;;;;;;;;;;17.80;99.90;;;;;;5111166;27;19954;-57
2022/09/09 08:34:59;;;;;;;;;;;18.00;99.90;;;;;;5076657;28;20119;-57
2022/09/09 08:37:41;;;;;;;;;;;18.40;99.90;;;;;;5082292;28;20382;-56
2022/09/09 08:40:23;;;;;;;;;;;18.80;99.90;;;;;;5095342;27;19912;-56
2022/09/09 08:43:06;;;;;;;;;;;19.00;99.90;;;;;;5124017;27;20408;-57
2022/09/09 08:45:50;;;;;;;;;;;18.90;99.90;;;;;;5104172;27;20335;-57
2022/09/09 08:48:38;;;;;;;;;;;18.80;99.90;;;;;;5099393;27;19920;-56
2022/09/09 08:51:19;;;;;;;;;;;18.80;99.90;;;;;;5109983;27;20339;-57
2022/09/09 08:54:03;;;;;;;;;;;19.10;99.90;;;;;;5077435;28;19974;-56
2022/09/09 08:56:44;;;;;;;;;;;19.80;99.90;;;;;;5098253;27;19950;-56
2022/09/09 08:59:25;;;;;;;;;;;20.70;99.90;;;;;;5100112;27;19930;-56
2022/09/09 09:02:11;;;;;;;;;;;21.10;99.90;;;;;;5103209;27;19926;-57
2022/09/09 09:05:12;;;;;;;;;;;21.40;99.90;;;;;;5118935;27;19916;-57
2022/09/09 09:08:00;;;;;;;;;;;21.30;99.90;;;;;;5128723;27;19916;-57
2022/09/09 09:10:47;;;;;;;;;;;21.20;99.90;;;;;;5094458;27;20643;-56
2022/09/09 09:13:36;;;;;;;;;;;21.00;99.90;;;;;;5117917;27;19920;-57
2022/09/09 09:16:23;;;;;;;;;;;20.60;99.90;;;;;;5124026;27;19915;-57
2022/09/09 09:19:05;;;;;;;;;;;20.00;99.90;;;;;;5099339;27;19973;-56
2022/09/09 09:21:50;;;;;;;;;;;19.60;99.90;;;;;;5075238;28;19938;-57
2022/09/09 09:24:36;;;;;;;;;;;19.30;99.90;;;;;;5111474;27;19916;-56
2022/09/09 09:27:19;;;;;;;;;;;19.50;99.90;;;;;;5100100;27;19930;-57
2022/09/09 09:30:13;;;;;;;;;;;19.80;99.90;;;;;;5096568;27;19930;-57
2022/09/09 09:32:56;;;;;;;;;;;19.80;99.90;;;;;;5103195;27;20332;-56
2022/09/09 09:35:37;;;;;;;;;;;19.40;99.90;;;;;;5103364;27;19966;-57
2022/09/09 09:38:19;;;;;;;;;;;18.90;99.90;;;;;;5104470;27;20430;-56
2022/09/09 09:41:02;;;;;;;;;;;18.80;99.90;;;;;;5096407;27;19912;-56
2022/09/09 09:43:43;;;;;;;;;;;19.10;99.90;;;;;;5103659;27;19912;-57
2022/09/09 09:46:28;;;;;;;;;;;19.30;99.90;;;;;;5094976;27;19916;-57
2022/09/09 09:49:14;;;;;;;;;;;19.70;99.90;;;;;;5094159;27;20262;-56
2022/09/09 09:51:54;;;;;;;;;;;20.10;99.90;;;;;;5077097;28;19920;-56
2022/09/09 09:54:35;;;;;;;;;;;20.20;99.90;;;;;;5096482;27;19938;-57
2022/09/09 09:57:17;;;;;;;;;;;20.40;99.90;;;;;;5144576;27;19919;-57
2022/09/09 10:00:07;;;;;;;;;;;20.60;99.90;;;;;;5093275;27;20864;-57
2022/09/09 10:02:54;;;;;;;;;;;20.90;99.90;;;;;;5093170;27;19958;-57
2022/09/09 10:05:45;;;;;;;;;;;20.80;99.90;;;;;;5120864;27;19924;-57
2022/09/09 10:08:27;;;;;;;;;;;20.60;99.90;;;;;;5100454;27;20427;-58
2022/09/09 10:11:16;;;;;;;;;;;20.20;99.90;;;;;;5116827;27;19923;-57
2022/09/09 10:14:03;;;;;;;;;;;19.90;99.90;;;;;;5092368;27;19943;-56
2022/09/09 10:16:49;;;;;;;;;;;20.00;99.90;;;;;;5100953;27;19930;-56
2022/09/09 10:19:33;;;;;;;;;;;20.40;99.90;;;;;;5101364;27;19930;-56
2022/09/09 10:22:26;;;;;;;;;;;20.70;99.90;;;;;;5087290;27;19926;-56
2022/09/09 10:25:19;;;;;;;;;;;20.90;99.90;;;;;;5103995;27;20342;-57
2022/09/09 10:28:17;;;;;;;;;;;21.20;99.90;;;;;;5104842;27;19913;-57
2022/09/09 10:31:02;;;;;;;;;;;21.60;99.90;;;;;;5097896;27;19926;-57
2022/09/09 10:33:48;;;;;;;;;;;22.10;99.90;;;;;;5125330;27;19929;-57
2022/09/09 10:36:28;;;;;;;;;;;22.30;99.90;;;;;;5084981;28;19912;-57
2022/09/09 10:39:17;;;;;;;;;;;22.10;99.90;;;;;;5145466;27;19952;-57
2022/09/09 10:42:03;;;;;;;;;;;21.70;99.90;;;;;;5105426;27;20431;-56
2022/09/09 10:44:49;;;;;;;;;;;21.50;99.90;;;;;;5105304;27;19942;-57
2022/09/09 10:47:37;;;;;;;;;;;21.40;99.90;;;;;;5084402;28;19912;-57
2022/09/09 10:50:38;;;;;;;;;;;21.30;99.90;;;;;;5103288;27;19913;-57
2022/09/09 10:53:23;;;;;;;;;;;21.60;99.90;;;;;;5125428;27;19938;-57
2022/09/09 10:56:05;;;;;;;;;;;22.00;99.90;;;;;;5125687;27;19912;-57
2022/09/09 10:58:48;;;;;;;;;;;22.30;99.90;;;;;;5084327;28;19920;-57
2022/09/09 11:01:31;;;;;;;;;;;22.00;99.90;;;;;;5094536;27;19954;-57
2022/09/09 11:04:14;;;;;;;;;;;22.60;99.90;;;;;;5084822;28;19913;-57
2022/09/09 11:06:56;;;;;;;;;;;23.30;99.90;;;;;;5105242;27;19926;-57
2022/09/09 11:09:39;;;;;;;;;;;23.60;99.90;;;;;;5104384;27;20572;-57
2022/09/09 11:12:20;;;;;;;;;;;23.80;99.90;;;;;;5104780;27;20420;-57
2022/09/09 11:15:04;;;;;;;;;;;24.00;99.90;;;;;;5105038;27;19971;-57
2022/09/09 11:17:49;;;;;;;;;;;24.00;99.90;;;;;;5104510;27;20152;-57
2022/09/09 11:20:28;;;;;;;;;;;24.00;99.90;;;;;;5101195;27;19969;-56
2022/09/09 11:23:11;;;;;;;;;;;24.20;99.90;;;;;;5105459;27;19927;-57
2022/09/09 11:25:53;;;;;;;;;;;24.40;99.90;;;;;;5137587;27;20432;-57
2022/09/09 11:28:42;;;;;;;;;;;24.40;99.90;;;;;;5103784;27;19912;-57
2022/09/09 11:31:33;;;;;;;;;;;24.40;99.90;;;;;;5094042;27;20339;-57
2022/09/09 11:34:24;;;;;;;;;;;23.80;99.90;;;;;;5103651;27;19913;-57
2022/09/09 11:37:15;;;;;;;;;;;23.50;99.90;;;;;;5103866;27;19926;-57
2022/09/09 11:40:05;;;;;;;;;;;23.30;99.90;;;;;;5081813;28;19916;-57
2022/09/09 11:42:47;;;;;;;;;;;23.50;99.90;;;;;;5094711;27;19924;-56
2022/09/09 11:45:29;;;;;;;;;;;23.70;99.90;;;;;;5103242;27;19949;-57
2022/09/09 11:48:25;;;;;;;;;;;23.40;99.90;;;;;;5083551;28;19912;-57
2022/09/09 11:51:07;;;;;;;;;;;23.30;99.90;;;;;;5123883;27;20419;-56
2022/09/09 11:53:52;;;;;;;;;;;23.40;99.90;;;;;;5103738;27;19912;-57
2022/09/09 11:56:34;;;;;;;;;;;23.50;99.90;;;;;;5144789;27;19911;-57
2022/09/09 11:59:21;;;;;;;;;;;23.30;99.90;;;;;;5083081;28;20374;-57
2022/09/09 12:02:02;;;;;;;;;;;23.10;99.90;;;;;;5123816;27;19912;-56
2022/09/09 12:04:45;;;;;;;;;;;23.00;99.90;;;;;;5104123;27;19953;-57
2022/09/09 12:07:29;;;;;;;;;;;23.20;99.90;;;;;;5098154;27;19931;-56
2022/09/09 12:10:21;;;;;;;;;;;23.30;99.90;;;;;;5123515;27;19911;-57
2022/09/09 12:13:15;;;;;;;;;;;23.20;99.90;;;;;;5081466;28;19916;-56
2022/09/09 12:15:57;;;;;;;;;;;23.10;99.90;;;;;;5079250;28;19918;-57
2022/09/09 12:18:39;;;;;;;;;;;22.70;99.90;;;;;;5065434;28;19913;-57
2022/09/09 12:21:22;;;;;;;;;;;22.70;99.90;;;;;;5122764;27;19916;-56
2022/09/09 12:24:08;;;;;;;;;;;22.80;99.90;;;;;;5097390;27;19945;-57
2022/09/09 12:26:54;;;;;;;;;;;22.80;99.90;;;;;;5097685;27;20391;-57
2022/09/09 12:29:42;;;;;;;;;;;22.80;99.90;;;;;;5093419;27;19961;-57
2022/09/09 12:32:24;;;;;;;;;;;22.90;99.90;;;;;;5148168;27;20140;-57
2022/09/09 12:35:07;;;;;;;;;;;23.30;99.90;;;;;;5097113;27;19930;-57
2022/09/09 12:37:48;;;;;;;;;;;23.90;99.90;;;;;;5075726;28;19916;-57
2022/09/09 12:40:29;;;;;;;;;;;24.30;99.90;;;;;;5093583;27;19950;-57
2022/09/09 12:43:21;;;;;;;;;;;23.80;99.90;;;;;;5103702;27;19927;-57
2022/09/09 12:46:01;;;;;;;;;;;23.70;99.90;;;;;;5078949;28;19912;-57
2022/09/09 12:48:43;;;;;;;;;;;24.10;99.90;;;;;;5102822;27;19912;-57
2022/09/09 12:51:26;;;;;;;;;;;24.40;97.60;;;;;;5115144;27;19916;-57
2022/09/09 12:54:06;;;;;;;;;;;24.80;96.60;;;;;;5105211;27;19926;-57
2022/09/09 12:56:48;;;;;;;;;;;25.10;93.30;;;;;;5125290;27;19915;-57
2022/09/09 12:59:35;;;;;;;;;;;25.20;91.40;;;;;;5103966;27;19966;-57
2022/09/09 13:02:22;;;;;;;;;;;25.20;91.70;;;;;;5105195;27;19916;-57
2022/09/09 13:05:14;;;;;;;;;;;25.20;90.60;;;;;;5125096;27;20436;-56
2022/09/09 13:08:01;;;;;;;;;;;25.10;91.00;;;;;;5104741;27;19920;-57
2022/09/09 13:10:44;;;;;;;;;;;25.00;89.00;;;;;;5101665;27;19974;-57
2022/09/09 13:13:29;;;;;;;;;;;24.70;90.10;;;;;;5104158;27;20191;-56
2022/09/09 13:16:20;;;;;;;;;;;24.60;90.00;;;;;;5145207;27;19911;-56
2022/09/09 13:19:02;;;;;;;;;;;24.50;88.80;;;;;;5103066;27;20311;-57
2022/09/09 13:21:43;;;;;;;;;;;24.50;89.50;;;;;;5091117;27;19926;-57
2022/09/09 13:24:29;;;;;;;;;;;24.50;88.30;;;;;;5104051;27;20418;-57
2022/09/09 13:27:25;;;;;;;;;;;24.50;87.40;;;;;;5104195;27;19954;-57
2022/09/09 13:30:19;;;;;;;;;;;24.50;88.40;;;;;;5103690;27;19953;-57
2022/09/09 13:33:19;;;;;;;;;;;24.70;86.50;;;;;;5104336;27;20244;-58
2022/09/09 13:36:00;;;;;;;;;;;24.60;85.40;;;;;;5103427;27;19916;-57
2022/09/09 13:38:54;;;;;;;;;;;24.50;87.10;;;;;;5124254;27;19911;-57
2022/09/09 13:41:36;;;;;;;;;;;24.50;88.60;;;;;;5083547;28;19912;-57
2022/09/09 13:44:19;;;;;;;;;;;24.10;81.80;;;;;;5104223;27;19962;-56
2022/09/09 13:47:03;;;;;;;;;;;23.60;85.00;;;;;;5103875;27;19926;-57
2022/09/09 13:49:45;;;;;;;;;;;22.90;89.70;;;;;;5103142;27;19916;-57
2022/09/09 13:52:27;;;;;;;;;;;22.20;93.20;;;;;;5124718;27;19912;-56
2022/09/09 13:55:09;;;;;;;;;;;21.80;97.50;;;;;;5103880;27;19912;-56
2022/09/09 13:57:54;;;;;;;;;;;21.40;94.20;;;;;;5103894;27;19973;-57
2022/09/09 14:00:35;;;;;;;;;;;20.50;96.30;;;;;;5100932;27;19927;-57
2022/09/09 14:03:16;;;;;;;;;;;19.80;99.90;;;;;;5104919;27;19955;-57
2022/09/09 14:05:55;;;;;;;;;;;19.40;99.90;;;;;;5104666;27;19912;-57
2022/09/09 14:08:36;;;;;;;;;;;19.00;99.90;;;;;;5101695;27;19926;-57
2022/09/09 14:11:17;;;;;;;;;;;18.70;99.90;;;;;;5088759;27;19912;-57
2022/09/09 14:13:58;;;;;;;;;;;18.50;99.90;;;;;;5118940;27;19916;-57
2022/09/09 14:16:38;;;;;;;;;;;18.10;99.90;;;;;;5119741;27;19916;-58
2022/09/09 14:19:18;;;;;;;;;;;17.60;99.90;;;;;;5120927;27;19912;-57
2022/09/09 14:21:58;;;;;;;;;;;17.10;99.90;;;;;;5155726;22;19928;-53
2022/09/09 14:24:39;;;;;;;;;;;16.70;99.90;;;;;;5104968;27;20422;-53
2022/09/09 14:27:19;;;;;;;;;;;15.40;99.90;;;;;;5102690;27;19934;-54
2022/09/09 14:29:59;;;;;;;;;;;14.20;99.90;;;;;;5090913;27;20225;-54
2022/09/09 14:32:40;;;;;;;;;;;13.50;99.90;;;;;;5087366;27;20336;-52
2022/09/09 14:35:20;;;;;;;;;;;13.30;99.90;;;;;;5103991;27;20385;-55
2022/09/09 14:38:00;;;;;;;;;;;13.20;99.90;;;;;;5103910;27;19930;-55
2022/09/09 14:40:41;;;;;;;;;;;13.10;99.90;;;;;;5102835;27;19961;-55
2022/09/09 14:43:21;;;;;;;;;;;13.00;99.90;;;;;;5103589;27;20447;-54
2022/09/09 14:46:06;;;;;;;;;;;13.00;99.90;;;;;;5102944;27;19912;-55
2022/09/09 14:48:48;;;;;;;;;;;13.10;99.90;;;;;;5102531;27;20325;-53
2022/09/09 14:51:28;;;;;;;;;;;13.30;99.90;;;;;;5100752;27;19961;-53
2022/09/09 14:54:08;;;;;;;;;;;13.50;99.90;;;;;;5124060;27;19918;-55
2022/09/09 14:56:48;;;;;;;;;;;13.50;99.90;;;;;;5103541;27;20065;-55
2022/09/09 14:59:28;;;;;;;;;;;13.50;99.90;;;;;;5101652;27;20448;-53
2022/09/09 15:02:08;;;;;;;;;;;13.60;99.90;;;;;;5098545;27;19912;-54
2022/09/09 15:04:49;;;;;;;;;;;13.70;99.90;;;;;;5081704;28;19917;-54
2022/09/09 15:07:31;;;;;;;;;;;13.70;99.90;;;;;;5104006;27;20369;-54
2022/09/09 15:10:12;;;;;;;;;;;13.70;99.90;;;;;;5104266;27;19915;-53
2022/09/09 15:12:52;;;;;;;;;;;13.70;99.90;;;;;;5084144;28;19916;-53
2022/09/09 15:15:32;;;;;;;;;;;13.70;99.90;;;;;;5123450;27;19915;-55
2022/09/09 15:18:12;;;;;;;;;;;13.60;99.90;;;;;;5122813;27;19915;-55
2022/09/09 15:20:53;;;;;;;;;;;13.60;99.90;;;;;;5143397;27;20279;-54
2022/09/09 15:23:33;;;;;;;;;;;13.40;99.90;;;;;;5102806;27;19924;-52
2022/09/09 15:26:13;;;;;;;;;;;13.40;99.90;;;;;;5102363;27;19920;-54
2022/09/09 15:28:54;;;;;;;;;;;13.30;99.90;;;;;;5101809;27;20385;-54
2022/09/09 15:31:34;;;;;;;;;;;13.30;99.90;;;;;;5098683;27;20153;-53
2022/09/09 15:34:14;;;;;;;;;;;13.30;99.90;;;;;;5098810;27;19938;-54
2022/09/09 15:36:55;;;;;;;;;;;13.30;99.90;;;;;;5099750;27;19916;-56
2022/09/09 15:39:35;;;;;;;;;;;13.30;99.90;;;;;;5100714;27;20482;-55
2022/09/09 15:42:15;;;;;;;;;;;13.20;99.90;;;;;;5109292;27;19923;-54
2022/09/09 15:44:55;;;;;;;;;;;13.10;99.90;;;;;;5122925;27;19916;-55
2022/09/09 15:47:34;;;;;;;;;;;13.00;99.90;;;;;;5101057;27;19954;-54
2022/09/09 15:50:14;;;;;;;;;;;13.00;99.90;;;;;;5122509;27;19916;-54